ICAO code: LHPR | IATA code: QGY | AFTN: LHPRZPZX | english | deutsch
Időjárás: 2018-02-23 03:50 (UTC) | Hőmérséklet: -0.6 °C | QNH: 1017.1 hPa | Szél: 2.4 m/s | Részletek
Live ATC LHPR
Webkameránk élőképe

Győr-Pér Repülőtér időjárás adatok

Metar:
METAR LHPR 222245Z AUTO 03004KT 5000 -RA BR BKN005 M00/M00 Q1017 RMK YL


Taf:
TAF LHPR 222000Z NIL


Jelenidő:
Eső, nem ónos, gyenge
Időbélyeg: 2018-02-23 03:50:00 UTC
Hőmérséklet:
-0.6 °C
 
Harmatpont:
-1.5 °C
 
Rel. páratartalom:
94%
 
QNH:
1017.1 hPa
 
Szélsebesség:
2.4 m/s
Max:
3.6 m/s
Szélirány:
30°
 
Csapadék (1 óra):
0.0 mm
 
Látótávolság:
8932 m
 
RVR:
>1500 m RWY30
 
1. felhőréteg mennyisége:
7 octa
 
1. felhőréteg alapja:
510 m


Az adatokat szolgáltatja
az Országos Meteorológiai Szolgálat
Győr-Pér Repülőtér | H 9099 Pér, Repülőtér | Tel: +36/96/559-200 | Fax: +36/96/559-202

ICAO code: LHPR | IATA code: QGY | AFTN: LHPRZPZX


weboldal tervezés: IRQ